Terminal Aerodrome Forecast
Issued by NWS Sterling, VA

Home | Current Version | Previous Version | Text Only | Print | Product List | Glossary On
Versions: 1 2 3 4 5 6 7 8 9 10 11 12 13 14 15 16 17 18 19 20 21 22 23
000
FTUS41 KLWX 021100
TAFDCA
TAF
KDCA 021131Z 0212/0312 00000KT 6SM HZ FEW024 OVC035
     FM021300 06004KT P6SM SCT010 BKN040
     FM021900 09005KT P6SM SCT050 SCT250
     FM030900 14004KT P6SM SCT008 BKN050=

USA.gov is the U.S. government's official web portal to all federal, state and local government web resources and services.